Naikai2 — JD2433 — position and weather

sailwx.info

Track history (hours):
 
Tides and Currents Weather Stations Pressure Air Temp Water Temp Dewpoint Dewpoint Depression Visibility Wind Speed Wind Dir Waves Ship Positions

Naikai2

Last reported at 2015-Jan-31 21:31 UTC. Time now 2015-Feb-01 00:36 UTC.
Position N 34°36' E 134°53'.

Length 28 m; draft 2.2 m.

Type: Other ship. MMSI: 431000283.

Date/timePositionNaut miles runAvg speedWind from/ knotsBaromVisibWave heightAir tempDewpointWater temp
2015-Jan-31 21:31N 34°36' E 134°53'1111.9
2015-Jan-31 20:33N 34°35' E 135°07'5 4.8
2015-Jan-31 19:33N 34°39' E 135°10'0 0.0
2015-Jan-31 03:33N 34°39' E 135°10'0 0.0
2015-Jan-31 00:25N 34°39' E 135°10'1 1.5
2015-Jan-30 23:33N 34°40' E 135°11'1 1.3
2015-Jan-30 22:33N 34°39' E 135°10'0 0.0
2015-Jan-30 09:11N 34°39' E 135°10'712.0
2015-Jan-30 08:33N 34°32' E 135°08'1814.9
2015-Jan-30 07:21N 34°15' E 134°59'7 8.9
2015-Jan-30 06:31N 34°23' E 134°60'1212.0
2015-Jan-30 05:33N 34°33' E 135°06'9 8.4
2015-Jan-30 04:26N 34°35' E 134°55'10 1.7
2015-Jan-29 22:27N 34°42' E 134°46'1213.8
2015-Jan-29 21:33N 34°38' E 135°00'8 8.0
2015-Jan-29 20:33N 34°39' E 135°10'0 0.0
2015-Jan-29 06:11N 34°38' E 135°10'813.1
2015-Jan-29 05:32N 34°38' E 134°60'2 0.6
2015-Jan-29 01:33N 34°37' E 134°57'9 9.2
2015-Jan-29 00:33N 34°35' E 135°08'8 7.7
2015-Jan-28 23:31N 34°27' E 135°06'1312.3
2015-Jan-28 22:28N 34°15' E 134°59'3 2.7
2015-Jan-28 21:27N 34°18' E 134°58'1213.5
2015-Jan-28 20:34N 34°29' E 135°04'1111.2
2015-Jan-28 19:33N 34°39' E 135°10'6 0.4
2015-Jan-28 06:33N 34°36' E 135°16'8 8.0
2015-Jan-28 05:31N 34°33' E 135°26'6 6.4
2015-Jan-28 04:33N 34°34' E 135°18'6 6.1
2015-Jan-28 03:33N 34°39' E 135°13'3 2.8
2015-Jan-28 02:33N 34°38' E 135°10'10 9.3
2015-Jan-28 01:31N 34°38' E 134°58'7 1.5
2015-Jan-27 21:10N 34°35' E 134°51'812.6
2015-Jan-27 20:30N 34°37' E 135°01'7 7.5
2015-Jan-27 19:33N 34°32' E 135°07'1210.8
2015-Jan-27 18:29N 34°22' E 135°01'1111.6
2015-Jan-27 17:33N 34°11' E 134°59'7 7.2
2015-Jan-27 16:33N 34°18' E 134°58'1413.8
2015-Jan-27 15:34N 34°31' E 135°05'9 9.3
2015-Jan-27 14:33N 34°39' E 135°10'  
2015-Jan-25 06:34N 34°35' E 135°08'16 7.7
2015-Jan-25 04:32N 34°21' E 134°59'1313.0
2015-Jan-25 03:33N 34°32' E 135°07'6 6.5
2015-Jan-25 02:33N 34°37' E 135°01'8 1.9
2015-Jan-24 22:23N 34°39' E 134°51'1112.8
2015-Jan-24 21:33N 34°37' E 135°04'5 5.3
2015-Jan-24 20:33N 34°39' E 135°10'0 0.0
2015-Jan-24 00:29N 34°39' E 135°10'0 0.5
2015-Jan-23 23:33N 34°39' E 135°10'5 0.3
2015-Jan-23 05:33N 34°37' E 135°05'7 1.7
2015-Jan-23 01:31N 34°37' E 134°57'10 9.9
2015-Jan-23 00:33N 34°33' E 135°07'7 7.0
2015-Jan-22 23:33N 34°26' E 135°04'1312.9
2015-Jan-22 22:33N 34°14' E 134°59'6 5.8
2015-Jan-22 21:32N 34°20' E 134°57'2 0.2
2015-Jan-22 12:32N 34°21' E 134°55'4 3.5
2015-Jan-22 11:31N 34°21' E 134°60'1313.1
2015-Jan-22 10:33N 34°32' E 135°07'9 8.0
2015-Jan-22 09:29N 34°37' E 134°59'  
Track history (hours):
 
Tides and Currents Weather Stations Pressure Air Temp Water Temp Dewpoint Dewpoint Depression Visibility Wind Speed Wind Dir Waves Ship Positions

Naikai2

Last reported at 2015-Jan-31 21:31 UTC. Time now 2015-Feb-01 00:36 UTC.
Position N 34°36' E 134°53'.

Length 28 m; draft 2.2 m.

Type: Other ship. MMSI: 431000283.

Date/timePositionNaut miles runAvg speedWind from/ knotsBaromVisibWave heightAir tempDewpointWater temp
2015-Jan-31 21:31N 34°36' E 134°53'1111.9
2015-Jan-31 20:33N 34°35' E 135°07'5 4.8
2015-Jan-31 19:33N 34°39' E 135°10'0 0.0
2015-Jan-31 03:33N 34°39' E 135°10'0 0.0
2015-Jan-31 00:25N 34°39' E 135°10'1 1.5
2015-Jan-30 23:33N 34°40' E 135°11'1 1.3
2015-Jan-30 22:33N 34°39' E 135°10'0 0.0
2015-Jan-30 09:11N 34°39' E 135°10'712.0
2015-Jan-30 08:33N 34°32' E 135°08'1814.9
2015-Jan-30 07:21N 34°15' E 134°59'7 8.9
2015-Jan-30 06:31N 34°23' E 134°60'1212.0
2015-Jan-30 05:33N 34°33' E 135°06'9 8.4
2015-Jan-30 04:26N 34°35' E 134°55'10 1.7
2015-Jan-29 22:27N 34°42' E 134°46'1213.8
2015-Jan-29 21:33N 34°38' E 135°00'8 8.0
2015-Jan-29 20:33N 34°39' E 135°10'0 0.0
2015-Jan-29 06:11N 34°38' E 135°10'813.1
2015-Jan-29 05:32N 34°38' E 134°60'2 0.6
2015-Jan-29 01:33N 34°37' E 134°57'9 9.2
2015-Jan-29 00:33N 34°35' E 135°08'8 7.7
2015-Jan-28 23:31N 34°27' E 135°06'1312.3
2015-Jan-28 22:28N 34°15' E 134°59'3 2.7
2015-Jan-28 21:27N 34°18' E 134°58'1213.5
2015-Jan-28 20:34N 34°29' E 135°04'1111.2
2015-Jan-28 19:33N 34°39' E 135°10'6 0.4
2015-Jan-28 06:33N 34°36' E 135°16'8 8.0
2015-Jan-28 05:31N 34°33' E 135°26'6 6.4
2015-Jan-28 04:33N 34°34' E 135°18'6 6.1
2015-Jan-28 03:33N 34°39' E 135°13'3 2.8
2015-Jan-28 02:33N 34°38' E 135°10'10 9.3
2015-Jan-28 01:31N 34°38' E 134°58'7 1.5
2015-Jan-27 21:10N 34°35' E 134°51'812.6
2015-Jan-27 20:30N 34°37' E 135°01'7 7.5
2015-Jan-27 19:33N 34°32' E 135°07'1210.8
2015-Jan-27 18:29N 34°22' E 135°01'1111.6
2015-Jan-27 17:33N 34°11' E 134°59'7 7.2
2015-Jan-27 16:33N 34°18' E 134°58'1413.8
2015-Jan-27 15:34N 34°31' E 135°05'9 9.3
2015-Jan-27 14:33N 34°39' E 135°10'  
2015-Jan-25 06:34N 34°35' E 135°08'16 7.7
2015-Jan-25 04:32N 34°21' E 134°59'1313.0
2015-Jan-25 03:33N 34°32' E 135°07'6 6.5
2015-Jan-25 02:33N 34°37' E 135°01'8 1.9
2015-Jan-24 22:23N 34°39' E 134°51'1112.8
2015-Jan-24 21:33N 34°37' E 135°04'5 5.3
2015-Jan-24 20:33N 34°39' E 135°10'0 0.0
2015-Jan-24 00:29N 34°39' E 135°10'0 0.5
2015-Jan-23 23:33N 34°39' E 135°10'5 0.3
2015-Jan-23 05:33N 34°37' E 135°05'7 1.7
2015-Jan-23 01:31N 34°37' E 134°57'10 9.9
2015-Jan-23 00:33N 34°33' E 135°07'7 7.0
2015-Jan-22 23:33N 34°26' E 135°04'1312.9
2015-Jan-22 22:33N 34°14' E 134°59'6 5.8
2015-Jan-22 21:32N 34°20' E 134°57'2 0.2
2015-Jan-22 12:32N 34°21' E 134°55'4 3.5
2015-Jan-22 11:31N 34°21' E 134°60'1313.1
2015-Jan-22 10:33N 34°32' E 135°07'9 8.0
2015-Jan-22 09:29N 34°37' E 134°59'  

Dump ship's entire track history